Time;durP1;ratioP1;P1;durP2;ratioP2;P2;SDS_P1;SDS_P2;PMS_P1;PMS_P2;Temp;Humidity;BMP_temperature;BMP_pressure;BME280_temperature;BME280_humidity;BME280_pressure;Samples;Min_cycle;Max_cycle;Signal;HPM_P1;HPM_P2
2023/06/19 00:00:36;;;;;;;4.53;4.05;;;16.70;1.00;;;;;;5163492;28;20033;-62
2023/06/19 00:03:10;;;;;;;4.57;3.28;;;16.70;99.90;;;;;;5193969;28;20506;-61
2023/06/19 00:05:42;;;;;;;;;;;16.70;99.90;;;;;;5165654;28;20051;-63
2023/06/19 00:08:13;;;;;;;4.80;3.53;;;16.70;1.00;;;;;;5200512;28;19924;-63
2023/06/19 00:10:48;;;;;;;5.47;3.58;;;16.60;1.00;;;;;;5197788;28;20033;-62
2023/06/19 00:13:25;;;;;;;5.20;3.88;;;16.60;1.00;;;;;;5181081;28;20234;-63
2023/06/19 00:16:00;;;;;;;5.10;3.75;;;16.50;1.00;;;;;;5175582;28;20041;-62
2023/06/19 00:18:39;;;;;;;4.72;3.83;;;16.50;1.00;;;;;;5197466;28;20041;-61
2023/06/19 00:21:10;;;;;;;6.38;4.18;;;16.50;1.00;;;;;;5181406;28;20033;-61
2023/06/19 00:23:44;;;;;;;4.70;3.20;;;16.40;1.00;;;;;;5176617;28;20353;-65
2023/06/19 00:26:15;;;;;;;5.28;4.25;;;16.40;1.00;;;;;;5161584;28;20032;-62
2023/06/19 00:28:47;;;;;;;6.55;4.05;;;16.40;1.00;;;;;;5198367;28;20032;-62
2023/06/19 00:31:19;;;;;;;5.30;3.78;;;16.40;1.00;;;;;;5178608;28;20037;-61
2023/06/19 00:33:52;;;;;;;5.72;4.30;;;16.40;1.00;;;;;;5178829;28;20037;-61
2023/06/19 00:36:25;;;;;;;4.82;3.90;;;16.40;1.00;;;;;;5186372;28;20036;-61
2023/06/19 00:38:57;;;;;;;5.30;4.10;;;16.40;1.00;;;;;;5174801;28;20381;-62
2023/06/19 00:41:31;;;;;;;5.43;4.18;;;16.40;1.00;;;;;;5201552;28;20029;-61
2023/06/19 00:44:03;;;;;;;5.65;3.42;;;16.40;1.00;;;;;;5197442;28;20089;-61
2023/06/19 00:46:40;;;;;;;7.78;3.90;;;16.40;1.00;;;;;;5209773;28;20509;-63
2023/06/19 00:49:13;;;;;;;6.82;3.50;;;16.40;1.00;;;;;;5198977;28;20203;-63
2023/06/19 00:51:45;;;;;;;3.87;3.43;;;16.40;99.90;;;;;;5196102;28;20041;-62
2023/06/19 00:54:18;;;;;;;5.70;3.80;;;16.50;1.00;;;;;;5213905;28;20041;-61
2023/06/19 00:56:50;;;;;;;5.13;3.70;;;16.50;99.90;;;;;;5180204;28;20408;-62
2023/06/19 00:59:25;;;;;;;4.30;3.38;;;16.50;99.90;;;;;;5176277;28;20051;-64
2023/06/19 01:02:00;;;;;;;5.68;3.30;;;16.60;99.90;;;;;;5195692;22;20066;-86
2023/06/19 01:04:32;;;;;;;3.97;3.58;;;16.50;1.00;;;;;;5211780;28;20033;-86
2023/06/19 01:07:20;;;;;;;4.32;3.38;;;16.50;1.00;;;;;;5211476;28;20029;-85
2023/06/19 01:09:56;;;;;;;3.95;3.40;;;16.40;1.00;;;;;;5224272;28;20120;-86
2023/06/19 01:12:38;;;;;;;5.72;4.03;;;16.40;1.00;;;;;;5224372;28;20033;-87
2023/06/19 01:15:12;;;;;;;6.25;3.95;;;16.40;1.00;;;;;;5224908;28;20028;-87
2023/06/19 01:17:47;;;;;;;5.43;3.83;;;16.40;1.00;;;;;;5223984;28;20033;-86
2023/06/19 01:20:21;;;;;;;4.78;3.63;;;16.30;1.00;;;;;;5242098;28;20029;-87
2023/06/19 01:22:56;;;;;;;6.10;3.78;;;16.20;1.00;;;;;;5226570;28;20033;-87
2023/06/19 01:25:41;;;;;;;4.57;3.85;;;16.10;1.00;;;;;;5243188;28;20043;-87
2023/06/19 01:28:14;;;;;;;3.85;3.30;;;16.10;1.00;;;;;;5220967;28;20082;-87
2023/06/19 01:30:50;;;;;;;;;;;16.20;1.00;;;;;;5228329;28;20032;-88
2023/06/19 01:33:26;;;;;;;;;;;16.20;1.00;;;;;;5225348;28;19904;-87
2023/06/19 01:36:02;;;;;;;5.85;3.85;;;16.20;1.00;;;;;;5223761;28;19909;-88
2023/06/19 01:38:39;;;;;;;4.45;3.80;;;16.10;1.00;;;;;;5224243;28;20029;-88
2023/06/19 01:41:19;;;;;;;6.15;4.50;;;16.10;1.00;;;;;;5224904;28;20029;-86
2023/06/19 01:43:55;;;;;;;5.65;3.28;;;16.10;1.00;;;;;;5207422;28;20039;-87
2023/06/19 01:46:30;;;;;;;6.20;3.97;;;16.00;1.00;;;;;;5192730;28;20033;-86
2023/06/19 01:49:06;;;;;;;5.82;4.20;;;16.00;1.00;;;;;;5225317;28;20043;-87
2023/06/19 01:51:39;;;;;;;4.57;3.85;;;15.90;1.00;;;;;;5242103;28;20315;-87
2023/06/19 01:54:11;;;;;;;5.10;4.38;;;15.90;1.00;;;;;;5243925;28;20033;-88
2023/06/19 01:56:46;;;;;;;5.50;3.92;;;15.90;1.00;;;;;;5207982;28;20039;-87
2023/06/19 01:59:22;;;;;;;6.00;3.90;;;15.80;1.00;;;;;;5230448;28;20028;-87
2023/06/19 02:02:16;;;;;;;5.75;4.22;;;15.80;1.00;;;;;;5250040;28;20040;-86
2023/06/19 02:04:48;;;;;;;4.43;3.55;;;15.70;1.00;;;;;;5195271;28;20064;-86
2023/06/19 02:07:20;;;;;;;3.58;3.28;;;15.70;1.00;;;;;;5231129;28;20032;-86
2023/06/19 02:09:54;;;;;;;5.82;3.85;;;15.70;1.00;;;;;;5242461;28;20028;-85
2023/06/19 02:12:25;;;;;;;5.47;4.32;;;15.60;1.00;;;;;;5222472;28;20203;-86
2023/06/19 02:14:57;;;;;;;5.07;3.65;;;15.60;1.00;;;;;;5221950;28;20037;-87
2023/06/19 02:17:29;;;;;;;8.45;4.15;;;15.50;1.00;;;;;;5222113;28;20029;-87
2023/06/19 02:20:07;;;;;;;5.13;3.92;;;15.50;1.00;;;;;;5222402;28;20025;-86
2023/06/19 02:22:39;;;;;;;5.90;4.53;;;15.40;1.00;;;;;;5222935;28;20024;-86
2023/06/19 02:25:11;;;;;;;4.82;4.03;;;15.30;1.00;;;;;;5222577;28;20039;-88
2023/06/19 02:27:42;;;;;;;6.72;4.70;;;15.30;1.00;;;;;;5223600;28;20028;-85
2023/06/19 02:30:13;;;;;;;5.22;4.07;;;15.20;1.00;;;;;;5222761;28;20032;-85
2023/06/19 02:32:45;;;;;;;5.20;4.22;;;15.20;1.00;;;;;;5223071;28;20047;-86
2023/06/19 02:35:17;;;;;;;5.13;3.33;;;15.10;1.00;;;;;;5239014;28;20029;-85
2023/06/19 02:37:48;;;;;;;5.72;3.95;;;15.00;1.00;;;;;;5222551;28;20341;-86
2023/06/19 02:40:25;;;;;;;4.93;4.20;;;15.00;1.00;;;;;;5224102;28;20025;-88
2023/06/19 02:42:57;;;;;;;5.97;4.57;;;15.00;1.00;;;;;;5222193;28;20028;-85
2023/06/19 02:45:30;;;;;;;6.78;4.20;;;15.00;1.00;;;;;;5224680;28;20039;-85
2023/06/19 02:48:03;;;;;;;7.07;4.40;;;15.00;1.00;;;;;;5225947;28;20099;-88
2023/06/19 02:50:34;;;;;;;4.90;4.05;;;14.90;1.00;;;;;;5225657;28;20323;-86
2023/06/19 02:53:16;;;;;;;4.57;3.67;;;14.90;1.00;;;;;;5222948;28;20055;-86
2023/06/19 02:55:48;;;;;;;5.37;4.33;;;14.90;1.00;;;;;;5222640;28;20316;-85
2023/06/19 02:58:26;;;;;;;5.85;4.10;;;14.80;9.20;;;;;;5222623;28;20031;-86
2023/06/19 03:00:58;;;;;;;7.97;5.07;;;14.80;1.00;;;;;;5222001;28;20028;-85
2023/06/19 03:03:37;;;;;;;5.47;4.13;;;14.80;1.00;;;;;;5221881;28;20319;-87
2023/06/19 03:06:08;;;;;;;4.95;4.07;;;14.80;1.00;;;;;;5194860;28;20033;-85
2023/06/19 03:08:41;;;;;;;5.85;3.97;;;14.90;1.00;;;;;;5222590;28;20178;-85
2023/06/19 03:11:13;;;;;;;5.85;4.13;;;14.90;1.00;;;;;;5221974;28;20028;-86
2023/06/19 03:13:51;;;;;;;5.15;3.65;;;14.90;1.00;;;;;;5221709;28;20185;-85
2023/06/19 03:19:52;;;;;;;5.43;3.88;;;14.90;49.70;;;;;;5220820;28;20029;-86
2023/06/19 03:22:26;;;;;;;5.55;4.22;;;15.00;12.60;;;;;;5221922;28;20021;-85
2023/06/19 03:24:58;;;;;;;6.70;3.95;;;15.10;49.90;;;;;;5220983;28;20032;-85
2023/06/19 03:27:30;;;;;;;6.18;4.00;;;15.30;1.00;;;;;;5220888;28;20032;-85
2023/06/19 03:30:05;;;;;;;5.75;4.15;;;15.40;1.00;;;;;;5220688;28;20035;-86
2023/06/19 03:32:37;;;;;;;5.25;3.75;;;15.60;1.00;;;;;;5221788;28;20028;-85
2023/06/19 03:35:13;;;;;;;5.78;3.92;;;15.80;1.00;;;;;;5220705;28;20035;-86
2023/06/19 03:37:44;;;;;;;7.32;4.15;;;15.90;1.00;;;;;;5220855;28;20029;-85
2023/06/19 03:40:18;;;;;;;6.72;4.32;;;16.00;1.00;;;;;;5220990;28;20029;-86
2023/06/19 03:42:50;;;;;;;5.68;4.43;;;16.00;1.00;;;;;;5220787;28;20028;-85
2023/06/19 03:45:24;;;;;;;5.20;4.22;;;16.10;1.00;;;;;;5220326;28;20029;-85
2023/06/19 03:47:59;;;;;;;5.05;4.28;;;16.40;1.00;;;;;;5220666;28;20318;-86
2023/06/19 03:50:32;;;;;;;6.05;4.68;;;16.60;1.00;;;;;;5220004;28;20033;-85
2023/06/19 03:53:06;;;;;;;6.20;4.10;;;16.70;1.00;;;;;;5220326;28;20033;-86
2023/06/19 03:55:42;;;;;;;6.00;4.68;;;16.80;1.00;;;;;;5219991;28;20031;-86
2023/06/19 03:58:15;;;;;;;6.53;3.95;;;17.00;1.00;;;;;;5221008;28;20027;-86
2023/06/19 04:00:49;;;;;;;4.93;4.20;;;17.20;1.00;;;;;;5224336;28;20088;-85
2023/06/19 04:03:24;;;;;;;4.65;3.60;;;17.50;1.00;;;;;;5143088;28;2207973;-85
2023/06/19 04:06:02;;;;;;;5.07;3.80;;;17.90;1.00;;;;;;5198222;28;20034;-86
2023/06/19 04:08:34;;;;;;;5.97;3.95;;;18.00;1.00;;;;;;5238185;28;20035;-86
2023/06/19 04:11:08;;;;;;;7.15;4.50;;;18.30;1.00;;;;;;5208784;28;20037;-87
2023/06/19 04:13:44;;;;;;;4.80;3.67;;;18.50;1.00;;;;;;5246132;28;20360;-86
2023/06/19 04:16:17;;;;;;;5.03;3.90;;;18.70;1.00;;;;;;5224748;28;20033;-86
2023/06/19 04:18:50;;;;;;;6.57;4.05;;;18.80;1.00;;;;;;5222950;28;20024;-86
2023/06/19 04:21:27;;;;;;;5.47;3.88;;;18.90;1.00;;;;;;5237164;28;20211;-86
2023/06/19 04:23:59;;;;;;;4.90;3.78;;;19.10;1.00;;;;;;5221417;28;20029;-86
2023/06/19 04:26:30;;;;;;;5.63;4.22;;;19.10;1.00;;;;;;5221731;28;20047;-87
2023/06/19 04:29:05;;;;;;;4.40;3.40;;;19.20;1.00;;;;;;5223425;28;20032;-86
2023/06/19 04:31:48;;;;;;;6.23;3.70;;;19.30;1.00;;;;;;5224658;28;20041;-86
2023/06/19 04:34:22;;;;;;;5.17;4.00;;;19.40;1.00;;;;;;5207799;28;20315;-85
2023/06/19 04:39:26;;;;;;;5.38;3.80;;;20.10;1.00;;;;;;5220552;28;20045;-63
2023/06/19 04:42:00;;;;;;;5.93;4.03;;;20.30;1.00;;;;;;5194736;28;20510;-63
2023/06/19 04:44:34;;;;;;;5.70;4.53;;;20.70;99.90;;;;;;5169441;28;20534;-63
2023/06/19 04:47:06;;;;;;;4.38;3.92;;;21.00;99.90;;;;;;5217867;28;20024;-64
2023/06/19 04:49:39;;;;;;;5.63;4.20;;;21.30;99.90;;;;;;5204259;28;20036;-61
2023/06/19 04:52:18;;;;;;;5.88;4.80;;;21.70;99.90;;;;;;5210213;28;20033;-65
2023/06/19 04:54:50;;;;;;;7.15;4.97;;;22.00;99.90;;;;;;5185665;28;20372;-63
2023/06/19 04:57:21;;;;;;;7.65;4.45;;;21.90;99.90;;;;;;5220975;28;20035;-63
2023/06/19 04:59:53;;;;;;;6.05;4.28;;;21.80;99.90;;;;;;5201695;28;20224;-62
2023/06/19 05:02:27;;;;;;;6.18;4.00;;;21.90;99.90;;;;;;5189562;28;20041;-61
2023/06/19 05:05:03;;;;;;;6.43;5.22;;;22.20;99.90;;;;;;5172297;28;20033;-65
2023/06/19 05:07:40;;;;;;;6.95;4.60;;;22.20;99.90;;;;;;5166611;28;20030;-62
2023/06/19 05:10:12;;;;;;;5.07;4.00;;;22.00;99.90;;;;;;5187276;28;20253;-62
2023/06/19 05:12:46;;;;;;;9.48;4.22;;;22.10;99.90;;;;;;5184505;28;20029;-62
2023/06/19 05:15:18;;;;;;;6.07;4.68;;;22.20;99.90;;;;;;5180756;28;20080;-62
2023/06/19 05:17:49;;;;;;;7.70;4.50;;;22.50;99.90;;;;;;5205037;28;20029;-62
2023/06/19 05:20:20;;;;;;;7.55;4.35;;;22.50;91.50;;;;;;5202081;28;20041;-63
2023/06/19 05:22:54;;;;;;;9.23;4.90;;;22.80;57.40;;;;;;5173853;28;20037;-63
2023/06/19 05:25:28;;;;;;;6.85;5.32;;;23.10;5.50;;;;;;5168126;28;20423;-63
2023/06/19 05:27:59;;;;;;;7.00;4.97;;;23.10;1.00;;;;;;5200104;28;20059;-61
2023/06/19 05:30:35;;;;;;;5.65;4.80;;;22.90;1.00;;;;;;5198919;28;20854;-64
2023/06/19 05:33:09;;;;;;;6.93;5.00;;;22.90;1.00;;;;;;5172960;28;20033;-62
2023/06/19 05:35:50;;;;;;;7.22;5.32;;;23.20;1.00;;;;;;5170574;28;20047;-66
2023/06/19 05:38:28;;;;;;;6.70;4.88;;;23.50;1.00;;;;;;5197268;28;20037;-64
2023/06/19 05:40:59;;;;;;;6.95;5.03;;;23.60;1.00;;;;;;5198257;28;20044;-65
2023/06/19 05:43:34;;;;;;;6.03;4.47;;;24.00;1.00;;;;;;5166072;28;20041;-65
2023/06/19 05:46:07;;;;;;;5.32;4.65;;;24.30;1.00;;;;;;5165341;28;20021;-65
2023/06/19 05:48:39;;;;;;;6.68;4.65;;;24.60;1.00;;;;;;5165175;28;20022;-63
2023/06/19 05:51:10;;;;;;;5.60;4.47;;;24.90;1.00;;;;;;5184646;28;20034;-64
2023/06/19 05:53:42;;;;;;;5.97;4.93;;;25.10;1.00;;;;;;5183085;28;20033;-64
2023/06/19 05:56:13;;;;;;;10.20;4.72;;;24.80;99.90;;;;;;5198344;28;20036;-63
2023/06/19 05:58:48;;;;;;;7.53;4.60;;;24.80;99.90;;;;;;5199917;28;20204;-64
2023/06/19 06:01:21;;;;;;;;;;;24.90;99.90;;;;;;5196951;28;20025;-62
2023/06/19 06:03:54;;;;;;;7.77;5.10;;;25.30;99.90;;;;;;5182058;28;19908;-64
2023/06/19 06:06:25;;;;;;;6.40;4.43;;;25.60;99.90;;;;;;5171195;28;20425;-62
2023/06/19 06:08:59;;;;;;;7.03;4.95;;;25.70;99.90;;;;;;5155912;28;20121;-63
2023/06/19 06:11:37;;;;;;;10.47;4.70;;;26.00;99.90;;;;;;5147118;28;20030;-64
2023/06/19 06:14:08;;;;;;;6.10;4.80;;;26.00;99.90;;;;;;5190831;28;20048;-61
2023/06/19 06:16:40;;;;;;;5.82;4.35;;;26.00;99.90;;;;;;5163142;28;20061;-65
2023/06/19 06:19:14;;;;;;;6.15;4.97;;;26.60;81.00;;;;;;5171635;28;20684;-64
2023/06/19 06:21:49;;;;;;;6.28;4.57;;;27.00;99.90;;;;;;5149068;28;20044;-64
2023/06/19 06:24:21;;;;;;;7.00;4.90;;;27.10;1.00;;;;;;5171279;28;20549;-65
2023/06/19 06:26:52;;;;;;;7.90;4.35;;;27.20;99.90;;;;;;5199110;28;20022;-64
2023/06/19 06:29:29;;;;;;;5.93;4.85;;;27.30;99.90;;;;;;5158680;28;20277;-62
2023/06/19 06:32:08;;;;;;;9.73;5.88;;;27.50;1.00;;;;;;5154637;28;20041;-63
2023/06/19 06:34:45;;;;;;;7.57;5.78;;;27.80;99.90;;;;;;5164297;28;20565;-62
2023/06/19 06:37:22;;;;;;;8.48;4.95;;;28.00;99.90;;;;;;5178007;28;20069;-64
2023/06/19 06:39:53;;;;;;;10.95;5.47;;;28.10;99.90;;;;;;5157874;28;20055;-61
2023/06/19 06:42:25;;;;;;;7.28;5.03;;;28.30;99.90;;;;;;5171194;28;20045;-63
2023/06/19 06:44:56;;;;;;;6.85;4.38;;;28.50;99.90;;;;;;5146233;28;20047;-63
2023/06/19 06:47:30;;;;;;;6.00;4.22;;;28.90;99.90;;;;;;5180027;28;20040;-65
2023/06/19 06:50:02;;;;;;;5.95;4.72;;;29.20;1.00;;;;;;5157463;28;20037;-61
2023/06/19 06:52:33;;;;;;;6.55;4.53;;;29.20;1.00;;;;;;5180092;28;20165;-64
2023/06/19 06:55:11;;;;;;;5.40;4.45;;;29.10;1.00;;;;;;5178593;28;20051;-63
2023/06/19 06:57:42;;;;;;;6.45;4.70;;;29.30;1.00;;;;;;5197959;28;20040;-62
2023/06/19 07:00:19;;;;;;;7.53;5.13;;;29.10;1.00;;;;;;5193163;28;20041;-66
2023/06/19 07:02:55;;;;;;;8.32;4.55;;;29.10;1.00;;;;;;5171011;28;20032;-63
2023/06/19 07:05:28;;;;;;;6.68;5.10;;;28.70;1.00;;;;;;5187551;28;20055;-63
2023/06/19 07:08:00;;;;;;;5.20;4.22;;;28.80;1.00;;;;;;5181449;28;20037;-64
2023/06/19 07:10:35;;;;;;;7.88;4.68;;;28.70;1.00;;;;;;5198026;28;20053;-64
2023/06/19 07:13:06;;;;;;;6.07;4.88;;;29.00;1.00;;;;;;5200723;28;20036;-63
2023/06/19 07:15:40;;;;;;;4.32;3.40;;;29.30;1.00;;;;;;5214329;28;20044;-61
2023/06/19 07:18:14;;;;;;;6.80;4.85;;;29.70;1.00;;;;;;5199980;28;20059;-63
2023/06/19 07:20:45;;;;;;;4.68;3.83;;;29.90;1.00;;;;;;5200035;28;20029;-61
2023/06/19 07:23:18;;;;;;;6.45;4.70;;;29.90;99.90;;;;;;5160168;28;20375;-63
2023/06/19 07:25:49;;;;;;;4.40;3.65;;;29.80;99.90;;;;;;5153766;28;20534;-63
2023/06/19 07:28:20;;;;;;;5.25;3.58;;;29.50;99.90;;;;;;5164104;28;20132;-63
2023/06/19 07:30:52;;;;;;;6.15;3.47;;;29.20;1.00;;;;;;5185170;28;20056;-63
2023/06/19 07:33:23;;;;;;;4.47;3.70;;;29.60;1.00;;;;;;5180986;28;20048;-63
2023/06/19 07:35:55;;;;;;;5.88;3.92;;;30.30;1.00;;;;;;5187369;28;20045;-63
2023/06/19 07:38:26;;;;;;;6.38;4.10;;;30.20;1.00;;;;;;5180329;28;20041;-62
2023/06/19 07:40:58;;;;;;;4.80;4.10;;;30.40;1.00;;;;;;5164582;28;20126;-63
2023/06/19 07:43:32;;;;;;;4.15;3.70;;;30.50;1.00;;;;;;5171961;28;20033;-63
2023/06/19 07:46:03;;;;;;;4.35;3.75;;;30.70;1.00;;;;;;5176234;28;20384;-63
2023/06/19 07:48:40;;;;;;;4.68;4.15;;;30.80;1.00;;;;;;5146879;28;20037;-63
2023/06/19 07:51:14;;;;;;;7.05;3.92;;;30.80;1.00;;;;;;5170153;28;20053;-62
2023/06/19 07:53:47;;;;;;;4.82;3.97;;;30.60;1.00;;;;;;5180485;28;20037;-64
2023/06/19 07:56:19;;;;;;;3.88;3.28;;;30.30;1.00;;;;;;5170062;28;20049;-62
2023/06/19 07:58:52;;;;;;;6.53;4.15;;;30.40;1.00;;;;;;5196513;28;20356;-63
2023/06/19 08:01:25;;;;;;;4.95;3.60;;;30.00;1.00;;;;;;5173573;28;20061;-62
2023/06/19 08:03:59;;;;;;;4.45;3.67;;;29.90;1.00;;;;;;5163003;28;20032;-63
2023/06/19 08:06:32;;;;;;;6.20;4.00;;;30.20;1.00;;;;;;5119597;28;20055;-62
2023/06/19 08:09:03;;;;;;;5.95;3.97;;;30.60;1.00;;;;;;5160355;28;20290;-63
2023/06/19 08:11:37;;;;;;;4.07;3.45;;;30.50;1.00;;;;;;5178643;28;20043;-65
2023/06/19 08:14:11;;;;;;;4.57;4.00;;;30.80;1.00;;;;;;5152272;28;20033;-63
2023/06/19 08:16:42;;;;;;;;;;;29.80;1.00;;;;;;5124574;28;20576;-63
2023/06/19 08:19:15;;;;;;;4.90;4.32;;;29.90;1.00;;;;;;5176927;28;19971;-60
2023/06/19 08:21:49;;;;;;;5.32;3.65;;;29.20;1.00;;;;;;5189194;28;20071;-63
2023/06/19 08:24:20;;;;;;;4.30;3.85;;;29.20;1.00;;;;;;5164159;28;20394;-63
2023/06/19 08:26:52;;;;;;;5.15;3.50;;;29.70;1.00;;;;;;5175086;28;20041;-63
2023/06/19 08:29:24;;;;;;;8.23;4.65;;;29.90;1.00;;;;;;5198113;28;20041;-63
2023/06/19 08:31:57;;;;;;;6.03;4.13;;;30.00;1.00;;;;;;5159271;28;20044;-62
2023/06/19 08:34:29;;;;;;;4.88;3.20;;;30.20;1.00;;;;;;5151596;28;20045;-63
2023/06/19 08:37:03;;;;;;;5.47;3.97;;;30.50;1.00;;;;;;5156586;28;20042;-61
2023/06/19 08:39:38;;;;;;;6.63;4.00;;;31.00;1.00;;;;;;5172115;28;20037;-63
2023/06/19 08:42:10;;;;;;;5.65;4.45;;;31.10;1.00;;;;;;5188141;28;20603;-63
2023/06/19 08:44:44;;;;;;;5.95;4.38;;;31.20;1.00;;;;;;5189725;28;20573;-63
2023/06/19 08:47:18;;;;;;;6.47;4.57;;;31.30;1.00;;;;;;5150913;28;20041;-60
2023/06/19 08:49:54;;;;;;;4.47;3.65;;;31.40;1.00;;;;;;5147780;28;20059;-61
2023/06/19 08:52:25;;;;;;;4.85;3.85;;;31.60;1.00;;;;;;5153148;28;20376;-61
2023/06/19 08:54:57;;;;;;;5.20;3.90;;;31.90;1.00;;;;;;5147117;28;20037;-61
2023/06/19 08:57:42;;;;;;;4.75;4.32;;;32.40;99.90;;;;;;5148645;28;20041;-61
2023/06/19 09:00:23;;;;;;;7.13;4.60;;;32.70;99.90;;;;;;5174337;28;20022;-61
2023/06/19 09:03:02;;;;;;;6.75;3.97;;;32.30;99.90;;;;;;5202167;28;20035;-62
2023/06/19 09:05:36;;;;;;;5.20;4.20;;;32.30;1.00;;;;;;5162390;28;20057;-62
2023/06/19 09:08:15;;;;;;;5.38;3.95;;;32.10;99.90;;;;;;5164081;28;20530;-61
2023/06/19 09:11:03;;;;;;;8.65;3.83;;;32.00;99.90;;;;;;5201418;28;20027;-61
2023/06/19 09:13:34;;;;;;;5.65;3.92;;;32.20;99.90;;;;;;5200984;28;20048;-62
2023/06/19 09:16:08;;;;;;;5.10;3.88;;;31.80;99.90;;;;;;5199297;28;20044;-61
2023/06/19 09:18:43;;;;;;;6.27;4.50;;;31.10;99.90;;;;;;5197499;28;20039;-63
2023/06/19 09:21:23;;;;;;;4.75;4.00;;;31.70;99.90;;;;;;5169184;28;20043;-62
2023/06/19 09:24:01;;;;;;;4.38;3.30;;;32.40;99.90;;;;;;5197326;28;20047;-61
2023/06/19 09:26:36;;;;;;;3.92;3.55;;;32.50;99.90;;;;;;5166536;28;20041;-60
2023/06/19 09:29:18;;;;;;;5.07;4.00;;;32.50;99.90;;;;;;5183730;28;20036;-60
2023/06/19 09:31:52;;;;;;;4.97;4.15;;;32.60;99.90;;;;;;5198254;28;20044;-62
2023/06/19 09:34:23;;;;;;;5.00;3.42;;;32.60;99.90;;;;;;5201134;28;20039;-61
2023/06/19 09:36:56;;;;;;;6.32;3.95;;;32.60;99.90;;;;;;5182540;28;20021;-62
2023/06/19 09:39:35;;;;;;;5.05;3.95;;;32.80;99.90;;;;;;5193332;28;20043;-62
2023/06/19 09:42:09;;;;;;;3.55;3.13;;;33.20;99.90;;;;;;5184008;28;20676;-62
2023/06/19 09:44:50;;;;;;;5.15;3.58;;;33.30;99.90;;;;;;5165641;28;20047;-62
2023/06/19 09:47:35;;;;;;;3.65;3.13;;;33.70;99.90;;;;;;5198707;28;20032;-62
2023/06/19 09:50:13;;;;;;;3.95;3.55;;;33.80;99.90;;;;;;5182144;28;20043;-61
2023/06/19 09:52:45;;;;;;;5.65;3.92;;;33.90;99.90;;;;;;5184142;28;20041;-62
2023/06/19 09:55:19;;;;;;;5.20;3.85;;;34.30;99.90;;;;;;5199815;28;20143;-62
2023/06/19 09:57:57;;;;;;;4.40;3.83;;;34.40;99.90;;;;;;5199101;28;20042;-63
2023/06/19 10:00:32;;;;;;;5.15;3.50;;;33.70;99.90;;;;;;5197593;28;20028;-62
2023/06/19 10:03:16;;;;;;;5.18;3.33;;;33.90;99.90;;;;;;5200806;28;20025;-63
2023/06/19 10:05:57;;;;;;;;;;;33.70;99.90;;;;;;5190887;28;20586;-62
2023/06/19 10:08:44;;;;;;;5.07;4.15;;;33.80;99.90;;;;;;5201180;28;19916;-62
2023/06/19 10:11:15;;;;;;;5.28;4.13;;;34.20;99.90;;;;;;5197818;28;20041;-63
2023/06/19 10:13:47;;;;;;;5.32;4.10;;;34.00;99.90;;;;;;5199933;28;20338;-62
2023/06/19 10:16:22;;;;;;;4.60;4.00;;;34.00;99.90;;;;;;5190604;28;20029;-64
2023/06/19 10:18:54;;;;;;;3.85;3.45;;;34.30;99.90;;;;;;5195524;28;20029;-61
2023/06/19 10:21:27;;;;;;;4.70;3.40;;;34.70;99.90;;;;;;5199820;28;20029;-61
2023/06/19 10:24:02;;;;;;;4.90;3.85;;;34.80;99.90;;;;;;5200087;28;20041;-62
2023/06/19 10:26:37;;;;;;;4.55;3.88;;;34.80;99.90;;;;;;5200090;28;20245;-63
2023/06/19 10:29:21;;;;;;;4.80;4.10;;;35.70;99.90;;;;;;5199484;28;20048;-61
2023/06/19 10:31:54;;;;;;;7.13;4.32;;;36.30;99.90;;;;;;5189288;28;20038;-62
2023/06/19 10:34:34;;;;;;;3.65;3.22;;;36.10;99.90;;;;;;5181826;28;20035;-63
2023/06/19 10:37:05;;;;;;;4.57;4.10;;;36.90;99.90;;;;;;5205848;28;20037;-62
2023/06/19 10:39:40;;;;;;;4.80;3.80;;;37.60;94.10;;;;;;5177356;28;20044;-62
2023/06/19 10:42:13;;;;;;;4.90;3.92;;;37.20;39.20;;;;;;5200793;28;20025;-60
2023/06/19 10:44:44;;;;;;;4.78;3.78;;;36.50;56.80;;;;;;5185365;28;20139;-61
2023/06/19 10:47:16;;;;;;;6.22;4.53;;;36.00;1.00;;;;;;5182736;28;20044;-62
2023/06/19 10:49:48;;;;;;;5.00;4.50;;;36.00;1.00;;;;;;5178433;28;20037;-61
2023/06/19 10:52:23;;;;;;;4.90;4.00;;;36.50;1.00;;;;;;5168059;28;20041;-62
2023/06/19 10:54:57;;;;;;;4.65;4.05;;;37.10;1.00;;;;;;5167431;28;20037;-63
2023/06/19 10:57:32;;;;;;;;;;;38.40;1.00;;;;;;5166803;28;20045;-63
2023/06/19 11:00:13;;;;;;;4.75;4.13;;;38.30;99.90;;;;;;5166154;28;19901;-63
2023/06/19 11:02:45;;;;;;;5.40;4.88;;;39.20;99.90;;;;;;5176798;28;20037;-62
2023/06/19 11:05:20;;;;;;;4.72;4.22;;;39.50;99.90;;;;;;5169617;28;20057;-61
2023/06/19 11:07:58;;;;;;;5.22;4.22;;;39.60;99.90;;;;;;5195843;28;20048;-61
2023/06/19 11:10:30;;;;;;;4.50;4.07;;;40.10;99.90;;;;;;5198481;28;20533;-60
2023/06/19 11:13:04;;;;;;;4.78;3.75;;;39.70;1.00;;;;;;5166117;28;20052;-61
2023/06/19 11:15:35;;;;;;;5.05;4.18;;;38.90;1.00;;;;;;5178624;28;20357;-63
2023/06/19 11:18:07;;;;;;;4.43;3.78;;;39.00;1.00;;;;;;5165119;28;20045;-61
2023/06/19 11:20:53;;;;;;;5.03;4.40;;;39.80;1.00;;;;;;5149867;28;20030;-63
2023/06/19 11:23:34;;;;;;;4.88;4.30;;;40.60;1.00;;;;;;5169830;28;20033;-63
2023/06/19 11:26:09;;;;;;;5.20;4.70;;;40.60;1.00;;;;;;5172583;28;20052;-66
2023/06/19 11:28:41;;;;;;;4.13;3.72;;;40.50;1.00;;;;;;5177642;28;20435;-60
2023/06/19 11:31:13;;;;;;;5.28;3.88;;;41.30;1.00;;;;;;5160751;28;20041;-63
2023/06/19 11:33:45;;;;;;;4.47;3.70;;;41.40;1.00;;;;;;5147122;28;20029;-63
2023/06/19 11:36:18;;;;;;;5.47;4.05;;;40.90;1.00;;;;;;5199866;28;20387;-64
2023/06/19 11:38:49;;;;;;;4.00;3.65;;;41.30;1.00;;;;;;5182524;28;20052;-62
2023/06/19 11:41:30;;;;;;;3.85;3.45;;;40.90;1.00;;;;;;5181594;28;20340;-63
2023/06/19 11:44:07;;;;;;;3.50;3.20;;;40.60;1.00;;;;;;5197963;28;20030;-61
2023/06/19 11:46:38;;;;;;;4.05;3.65;;;40.70;1.00;;;;;;5194397;28;20040;-59
2023/06/19 11:49:18;;;;;;;3.97;3.58;;;40.90;1.00;;;;;;5165557;28;20045;-62
2023/06/19 11:51:49;;;;;;;3.20;2.90;;;41.20;1.00;;;;;;5178743;28;20043;-61
2023/06/19 11:54:20;;;;;;;4.03;3.63;;;40.90;1.00;;;;;;5178309;28;20465;-63
2023/06/19 11:56:54;;;;;;;4.72;4.07;;;41.20;1.00;;;;;;5198945;28;20037;-63
2023/06/19 11:59:26;;;;;;;3.70;3.38;;;41.30;1.00;;;;;;5164289;28;20034;-62
2023/06/19 12:01:59;;;;;;;3.63;3.20;;;41.90;1.00;;;;;;5191438;28;20041;-60
2023/06/19 12:04:30;;;;;;;4.70;3.40;;;41.70;1.00;;;;;;5156269;28;20434;-62
2023/06/19 12:07:05;;;;;;;3.97;3.67;;;41.50;1.00;;;;;;5151175;28;20037;-61
2023/06/19 12:09:37;;;;;;;4.47;3.47;;;41.30;1.00;;;;;;5179558;28;20051;-62
2023/06/19 12:12:10;;;;;;;4.43;3.67;;;40.70;1.00;;;;;;5167764;28;20035;-61
2023/06/19 12:14:41;;;;;;;5.45;3.67;;;40.30;1.00;;;;;;5165590;28;20029;-60
2023/06/19 12:17:13;;;;;;;4.45;3.85;;;39.80;1.00;;;;;;5163625;28;20037;-64
2023/06/19 12:19:44;;;;;;;3.33;3.03;;;40.50;1.00;;;;;;5197959;28;20033;-62
2023/06/19 12:22:15;;;;;;;3.92;3.50;;;40.60;1.00;;;;;;5164440;28;20234;-60
2023/06/19 12:24:46;;;;;;;3.97;3.58;;;41.20;1.00;;;;;;5182682;28;20037;-63
2023/06/19 12:27:20;;;;;;;4.40;4.00;;;41.10;1.00;;;;;;5198507;28;20049;-62
2023/06/19 12:29:52;;;;;;;4.15;3.08;;;41.00;1.00;;;;;;5202729;28;20025;-62
2023/06/19 12:32:27;;;;;;;3.80;3.42;;;41.60;1.00;;;;;;5176365;28;20060;-62
2023/06/19 12:35:00;;;;;;;3.67;3.38;;;42.20;1.00;;;;;;5180792;28;20041;-66
2023/06/19 12:37:34;;;;;;;3.58;3.22;;;42.20;1.00;;;;;;5180424;28;20045;-64
2023/06/19 12:40:10;;;;;;;4.15;3.75;;;41.60;1.00;;;;;;5181203;28;20047;-64
2023/06/19 12:42:43;;;;;;;4.07;3.67;;;40.80;1.00;;;;;;5181378;28;20041;-62
2023/06/19 12:45:14;;;;;;;5.03;3.58;;;40.40;1.00;;;;;;5173313;28;20041;-65
2023/06/19 12:47:45;;;;;;;3.78;3.38;;;40.50;1.00;;;;;;5199428;28;20171;-63
2023/06/19 12:50:16;;;;;;;4.60;3.25;;;40.50;1.00;;;;;;5198915;28;20029;-63
2023/06/19 12:52:48;;;;;;;3.75;3.40;;;40.90;1.00;;;;;;5199007;28;20052;-63
2023/06/19 12:55:20;;;;;;;4.07;3.70;;;41.70;1.00;;;;;;5181425;28;20041;-64
2023/06/19 12:57:51;;;;;;;4.15;3.75;;;42.40;1.00;;;;;;5180991;28;20053;-63
2023/06/19 13:00:22;;;;;;;3.65;3.25;;;41.60;1.00;;;;;;5198914;28;20029;-62
2023/06/19 13:02:53;;;;;;;5.03;3.90;;;40.90;1.00;;;;;;5185182;28;20040;-64
2023/06/19 13:05:24;;;;;;;4.85;3.60;;;39.80;1.00;;;;;;5191079;28;20050;-63
2023/06/19 13:07:56;;;;;;;3.88;3.40;;;40.70;1.00;;;;;;5184509;28;20041;-64
2023/06/19 13:10:29;;;;;;;3.50;3.20;;;41.20;1.00;;;;;;5202781;28;20029;-65
2023/06/19 13:13:05;;;;;;;;;;;41.80;1.00;;;;;;5169524;28;20037;-62
2023/06/19 13:15:36;;;;;;;3.50;3.20;;;42.20;1.00;;;;;;5164860;28;19913;-65
2023/06/19 13:18:07;;;;;;;4.43;3.42;;;41.00;1.00;;;;;;5201884;28;20561;-60
2023/06/19 13:20:41;;;;;;;5.50;4.15;;;41.30;1.00;;;;;;5203266;28;20029;-62
2023/06/19 13:23:15;;;;;;;;;;;41.60;1.00;;;;;;5205075;28;20049;-60
2023/06/19 13:25:46;;;;;;;4.25;3.63;;;40.10;1.00;;;;;;5164984;28;19921;-65
2023/06/19 13:28:20;;;;;;;4.13;3.55;;;38.00;1.00;;;;;;5183024;28;20052;-61
2023/06/19 13:30:52;;;;;;;5.10;3.60;;;37.10;1.00;;;;;;5182002;28;20044;-66
2023/06/19 13:33:27;;;;;;;4.75;3.25;;;37.10;1.00;;;;;;5199486;28;20041;-62
2023/06/19 13:35:58;;;;;;;3.63;3.33;;;38.00;1.00;;;;;;5201397;28;20034;-64